. : TABULKA : . . : GRAFY : . . : METAR : .


.: METAR informace z letišť v ČR :.

LKPR - Prague/Ruzyne, Czech Republic
Distance from station: WNW 188km
Updated: Thu, 16-Aug-2018 2:00pm CEST
Clear
Clear
 Wind from E
Wind: E 13 km/h
Temperature: 26°C
Dew Point: 11°C
Humidity: 39%
Barometer: 1018 hPa
Summary: Clear
Visibility: greater than 10 km
2018/08/16 12:00 LKPR 161200Z 10007KT 060V160 CAVOK 26/11 Q1018 NOSIG
LKTB - Brno/Turany, Czech Republic
Distance from station: S 28km
Updated: Thu, 16-Aug-2018 2:00pm CEST
Clear
Clear
 Wind from ENE
Wind: ENE 7 km/h
Temperature: 27°C
Dew Point: 10°C
Humidity: 34%
Barometer: 1018 hPa
Summary: Clear
Visibility: greater than 10 km
2018/08/16 12:00 LKTB 161200Z 06004KT 350V120 CAVOK 27/10 Q1018 NOSIG
 
LKMT - Ostrava/Mosnov, Czech Republic
Distance from station: ENE 112km
Updated: Thu, 16-Aug-2018 2:00pm CEST
Partly Cloudy
Partly Cloudy
 Wind from NNE
Wind: NNE 15 km/h
Temperature: 24°C
Dew Point: 13°C
Humidity: 50%
Barometer: 1019 hPa
Clouds: Partly Cloudy
Visibility: 10 km
Cloud details: Partly Cloudy 1463 m
2018/08/16 12:00 LKMT 161200Z 03008KT 360V070 9999 SCT048 24/13 Q1019 NOSIG
LKPD - Pardubice, Czech Republic
Distance from station: NW 96km
Updated: Thu, 16-Aug-2018 2:00pm CEST
Clear
Clear
 Wind from varies
Wind: varies 9 km/h
Temperature: 27°C
Dew Point: 8°C
Humidity: 30%
Barometer: 1018 hPa
Summary: Clear
Visibility: greater than 10 km
2018/08/16 12:00 LKPD 161200Z VRB05KT CAVOK 27/08 Q1018 NOSIG
 
LKNA - Namest, Czech Republic
Distance from station: WSW 45km
Updated: Thu, 16-Aug-2018 2:00pm CEST
Clear
Clear
 Wind from ENE
Wind: ENE 9 km/h
Temperature: 25°C
Dew Point: 9°C
Humidity: 36%
Barometer: 1019 hPa
Summary: Clear
Visibility: greater than 10 km
2018/08/16 12:00 LKNA 161200Z 07005KT 330V110 CAVOK 25/09 Q1019 NOSIG
LKKU - Kunovice, Czech Republic
Distance from station: ESE 70km
Updated: Thu, 16-Aug-2018 2:02pm CEST
Clear
Clear
 Wind from NE
Wind: NE 15 km/h
Temperature: 27°C
Dew Point: 12°C
Humidity: 39%
Barometer: 1017 hPa
Summary: Clear
Visibility: greater than 10 km
2018/08/16 12:02 LKKU 161202Z 05008KT 310V090 CAVOK 27/12 Q1017
 
LKCV - Caslav, Czech Republic
Distance from station: NW 109km
Updated: Thu, 16-Aug-2018 2:00pm CEST
Clear
Clear
 Wind from varies
Wind: varies 4 km/h
Temperature: 27°C
Dew Point: 10°C
Humidity: 34%
Barometer: 1018 hPa
Summary: Clear
Visibility: greater than 10 km
2018/08/16 12:00 LKCV 161200Z VRB02KT CAVOK 27/10 Q1018 NOSIG
LKKB - Kbely, Czech Republic
Distance from station: WNW 171km
Updated: Thu, 16-Aug-2018 2:00pm CEST
Clear
Clear
 Wind from E
Wind: E 6 km/h
Temperature: 27°C
Dew Point: 11°C
Humidity: 37%
Barometer: 1018 hPa
Summary: Clear
Visibility: greater than 10 km
2018/08/16 12:00 LKKB 161200Z 10003KT 030V170 CAVOK 27/11 Q1018 NOSIG
 
LKVO - Vodochody, Czech Republic
Distance from station: WNW 185km
Updated: Wed, 15-Aug-2018 2:00pm CEST
NOT Current
Clear
Clear
 Wind from NW
Wind: NW 15 km/h
Temperature: 24°C
Dew Point: 9°C
Humidity: 39%
Barometer: 1019 hPa
Summary: Clear
Visibility: greater than 10 km
2018/08/15 12:00 LKVO 151200Z 32008KT 260V030 CAVOK 24/09 Q1019

Metar display script from Saratoga-Weather.org